Time;durP1;ratioP1;P1;durP2;ratioP2;P2;SDS_P1;SDS_P2;PMS_P1;PMS_P2;Temp;Humidity;BMP_temperature;BMP_pressure;BME280_temperature;BME280_humidity;BME280_pressure;Samples;Min_cycle;Max_cycle;Signal;HPM_P1;HPM_P2
2021/08/11 00:00:34;;;;;;;11.60;5.60;;;19.40;93.30;;;;;;5036467;28;20193;-79
2021/08/11 00:03:00;;;;;;;12.37;5.43;;;19.40;93.40;;;;;;5038055;28;20211;-79
2021/08/11 00:05:26;;;;;;;13.47;5.80;;;19.30;93.80;;;;;;5070454;22;20323;-82
2021/08/11 00:07:52;;;;;;;9.63;5.15;;;19.30;93.80;;;;;;5061934;28;20652;-82
2021/08/11 00:10:18;;;;;;;10.80;5.00;;;19.30;93.70;;;;;;5061716;28;20175;-82
2021/08/11 00:12:44;;;;;;;11.32;5.65;;;19.30;93.60;;;;;;5061120;28;20447;-82
2021/08/11 00:15:11;;;;;;;9.65;4.90;;;19.30;93.70;;;;;;5042005;28;20197;-82
2021/08/11 00:17:37;;;;;;;13.10;4.53;;;19.20;94.00;;;;;;5041109;28;20318;-82
2021/08/11 00:20:04;;;;;;;9.15;4.65;;;19.20;94.10;;;;;;5041804;28;20188;-82
2021/08/11 00:22:30;;;;;;;9.80;5.20;;;19.10;94.60;;;;;;5041692;28;20173;-82
2021/08/11 00:24:56;;;;;;;10.23;5.37;;;19.00;94.50;;;;;;5041076;28;20200;-82
2021/08/11 00:27:22;;;;;;;10.43;5.53;;;19.00;94.60;;;;;;5040839;28;20177;-82
2021/08/11 00:29:47;;;;;;;9.47;5.37;;;19.00;94.80;;;;;;5041790;28;20649;-82
2021/08/11 00:32:13;;;;;;;15.03;6.63;;;18.90;95.00;;;;;;5041458;28;20688;-82
2021/08/11 00:34:41;;;;;;;9.70;5.30;;;18.90;95.10;;;;;;5040931;28;20193;-82
2021/08/11 00:37:06;;;;;;;7.15;5.15;;;18.90;95.20;;;;;;5041245;28;20801;-82
2021/08/11 00:39:32;;;;;;;19.77;5.80;;;18.80;95.20;;;;;;5041085;28;20188;-82
2021/08/11 00:41:58;;;;;;;9.50;5.10;;;18.80;95.50;;;;;;5041064;28;20514;-82
2021/08/11 00:44:23;;;;;;;12.93;6.67;;;18.80;95.50;;;;;;5040855;28;20189;-82
2021/08/11 00:46:50;;;;;;;10.33;5.40;;;18.80;95.40;;;;;;5040107;28;20173;-82
2021/08/11 00:49:17;;;;;;;12.07;5.63;;;18.80;95.70;;;;;;5041051;28;20173;-82
2021/08/11 00:51:44;;;;;;;11.82;5.13;;;18.80;95.90;;;;;;5041261;28;20645;-82
2021/08/11 00:54:11;;;;;;;13.57;5.32;;;18.70;95.90;;;;;;5040917;28;20284;-82
2021/08/11 00:56:39;;;;;;;14.07;5.60;;;18.70;95.80;;;;;;5040963;28;20173;-82
2021/08/11 00:59:06;;;;;;;15.63;5.50;;;18.70;95.80;;;;;;5040784;28;20180;-82
2021/08/11 01:01:33;;;;;;;18.63;5.18;;;18.60;96.00;;;;;;5041118;28;20463;-82
2021/08/11 01:04:03;;;;;;;8.15;4.95;;;18.60;96.20;;;;;;5040783;28;20243;-82
2021/08/11 01:06:30;;;;;;;8.77;5.60;;;18.70;96.20;;;;;;5041771;28;20714;-82
2021/08/11 01:08:57;;;;;;;14.35;5.70;;;18.60;96.10;;;;;;5041347;28;20173;-82
2021/08/11 01:11:25;;;;;;;9.18;5.35;;;18.60;96.40;;;;;;5039974;28;20177;-82
2021/08/11 01:13:52;;;;;;;16.35;6.10;;;18.50;96.70;;;;;;5040365;28;20352;-82
2021/08/11 01:16:18;;;;;;;9.63;5.72;;;18.60;96.40;;;;;;5040780;28;20205;-82
2021/08/11 01:18:44;;;;;;;10.55;5.32;;;18.50;96.50;;;;;;5041562;28;20177;-82
2021/08/11 01:21:13;;;;;;;11.40;5.53;;;;;;;;;;5058348;28;20169;-82
2021/08/11 01:23:52;;;;;;;9.27;4.82;;;18.50;96.60;;;;;;5057726;28;20255;-82
2021/08/11 01:26:48;;;;;;;12.23;5.68;;;18.50;96.60;;;;;;5040671;28;20589;-82
2021/08/11 01:29:28;;;;;;;22.95;6.47;;;18.40;96.90;;;;;;5021551;28;20239;-82
2021/08/11 01:32:14;;;;;;;16.92;5.72;;;18.40;96.90;;;;;;5039747;28;20168;-82
2021/08/11 01:34:45;;;;;;;8.70;5.13;;;18.40;97.10;;;;;;5039560;28;20193;-82
2021/08/11 01:37:19;;;;;;;12.65;4.80;;;18.30;97.50;;;;;;5040713;28;20739;-82
2021/08/11 01:39:52;;;;;;;12.35;5.85;;;18.30;97.60;;;;;;5039621;28;20617;-82
2021/08/11 01:42:21;;;;;;;12.30;5.88;;;18.30;97.50;;;;;;5039512;28;20169;-82
2021/08/11 01:45:16;;;;;;;12.60;5.85;;;18.30;97.60;;;;;;5039053;28;20197;-82
2021/08/11 01:47:45;;;;;;;8.77;5.47;;;18.30;97.40;;;;;;5038993;28;20173;-82
2021/08/11 01:50:15;;;;;;;17.02;5.90;;;18.30;97.40;;;;;;5038929;28;20173;-82
2021/08/11 01:52:44;;;;;;;12.35;6.18;;;18.30;97.60;;;;;;5055828;28;20204;-82
2021/08/11 01:55:11;;;;;;;9.18;4.30;;;18.30;97.60;;;;;;5039665;28;20173;-82
2021/08/11 01:57:50;;;;;;;12.50;5.75;;;18.30;97.60;;;;;;5039368;28;20176;-82
2021/08/11 02:00:17;;;;;;;14.40;5.40;;;18.30;97.50;;;;;;5040001;28;20700;-82
2021/08/11 02:02:45;;;;;;;9.57;5.60;;;18.30;97.70;;;;;;5039123;28;20257;-82
2021/08/11 02:05:13;;;;;;;11.00;5.65;;;18.30;97.50;;;;;;5039049;28;20199;-82
2021/08/11 02:07:40;;;;;;;14.68;5.55;;;18.10;97.70;;;;;;5038612;28;20577;-82
2021/08/11 02:10:08;;;;;;;21.85;5.90;;;18.10;97.80;;;;;;5038497;28;20227;-82
2021/08/11 02:12:35;;;;;;;11.18;5.55;;;18.10;97.90;;;;;;5038418;28;20197;-82
2021/08/11 02:15:01;;;;;;;11.25;5.43;;;18.00;98.20;;;;;;5038539;28;20715;-82
2021/08/11 02:17:27;;;;;;;10.98;5.38;;;18.00;98.40;;;;;;5038433;28;20185;-82
2021/08/11 02:19:53;;;;;;;9.20;5.07;;;18.00;98.30;;;;;;5039357;28;20165;-82
2021/08/11 02:22:19;;;;;;;10.10;4.93;;;18.00;98.40;;;;;;5038511;28;20423;-82
2021/08/11 02:24:45;;;;;;;11.75;6.25;;;17.90;98.40;;;;;;5038078;28;20255;-82
2021/08/11 02:27:21;;;;;;;11.60;5.88;;;17.90;98.50;;;;;;5038375;28;20200;-82
2021/08/11 02:29:49;;;;;;;13.18;5.13;;;17.90;98.40;;;;;;5038198;28;20172;-82
2021/08/11 02:32:21;;;;;;;12.23;5.13;;;17.90;98.40;;;;;;5037955;28;20563;-82
2021/08/11 02:35:01;;;;;;;13.07;5.93;;;17.80;98.70;;;;;;5037897;28;20193;-82
2021/08/11 02:37:34;;;;;;;12.73;6.55;;;17.70;98.90;;;;;;5037814;28;20512;-82
2021/08/11 02:40:14;;;;;;;12.25;6.13;;;17.70;98.90;;;;;;5038278;28;20173;-82
2021/08/11 02:42:48;;;;;;;12.32;6.13;;;17.70;99.00;;;;;;5037651;28;20547;-82
2021/08/11 02:45:17;;;;;;;11.23;6.85;;;17.70;98.90;;;;;;5037602;28;20183;-82
2021/08/11 02:47:45;;;;;;;12.98;5.72;;;17.60;99.10;;;;;;5037602;28;20175;-82
2021/08/11 02:50:13;;;;;;;13.00;5.40;;;17.60;99.10;;;;;;5037917;28;20192;-82
2021/08/11 02:52:39;;;;;;;16.13;6.00;;;17.60;99.10;;;;;;5038264;28;20189;-82
2021/08/11 02:55:07;;;;;;;20.63;5.75;;;17.50;99.10;;;;;;5038427;28;20173;-82
2021/08/11 02:57:34;;;;;;;11.88;5.70;;;17.60;99.10;;;;;;5038390;28;20187;-82
2021/08/11 03:00:00;;;;;;;8.60;5.38;;;17.60;99.10;;;;;;5037301;28;20539;-82
2021/08/11 03:02:27;;;;;;;12.82;5.35;;;17.60;99.10;;;;;;5036679;28;20200;-82
2021/08/11 03:04:53;;;;;;;13.98;6.40;;;17.60;99.10;;;;;;5037717;28;20589;-82
2021/08/11 03:07:20;;;;;;;15.13;6.05;;;17.70;99.00;;;;;;5037842;28;20254;-82
2021/08/11 03:09:46;;;;;;;10.23;5.63;;;17.70;99.00;;;;;;5038040;28;20196;-82
2021/08/11 03:12:13;;;;;;;11.05;6.45;;;17.60;99.10;;;;;;5037889;28;20183;-82
2021/08/11 03:14:40;;;;;;;10.90;5.50;;;17.50;99.10;;;;;;5037126;28;20189;-82
2021/08/11 03:17:11;;;;;;;11.77;5.40;;;17.50;99.10;;;;;;5037737;28;20173;-82
2021/08/11 03:19:38;;;;;;;16.75;6.30;;;17.50;99.10;;;;;;5038098;28;20256;-82
2021/08/11 03:22:06;;;;;;;11.00;5.80;;;17.40;99.10;;;;;;5038119;28;20240;-82
2021/08/11 03:24:31;;;;;;;12.20;5.80;;;17.40;99.10;;;;;;5038242;28;20257;-82
2021/08/11 03:26:57;;;;;;;9.40;5.83;;;17.30;99.10;;;;;;5037365;28;20196;-81
2021/08/11 03:29:23;;;;;;;13.17;6.60;;;17.30;99.10;;;;;;5036790;28;20170;-82
2021/08/11 03:31:49;;;;;;;11.37;5.70;;;17.30;99.10;;;;;;5036474;28;20177;-82
2021/08/11 03:34:15;;;;;;;23.73;6.90;;;17.30;99.10;;;;;;5053992;28;20204;-82
2021/08/11 03:36:40;;;;;;;11.53;5.97;;;17.30;99.10;;;;;;5040117;28;20174;-82
2021/08/11 03:39:06;;;;;;;19.80;7.03;;;17.40;99.10;;;;;;5040485;28;20549;-82
2021/08/11 03:41:32;;;;;;;10.90;6.17;;;17.30;99.10;;;;;;5040518;28;20486;-82
2021/08/11 03:43:58;;;;;;;13.73;6.20;;;17.40;99.10;;;;;;5040052;28;20438;-82
2021/08/11 03:46:24;;;;;;;13.00;6.70;;;17.40;99.10;;;;;;5039848;28;20818;-81
2021/08/11 03:48:50;;;;;;;12.40;6.33;;;17.40;99.10;;;;;;5039665;28;20412;-82
2021/08/11 03:51:15;;;;;;;7.87;5.57;;;17.40;99.10;;;;;;5039696;28;20416;-82
2021/08/11 03:53:41;;;;;;;14.97;6.73;;;17.50;99.10;;;;;;5039094;28;20216;-81
2021/08/11 03:56:07;;;;;;;9.43;5.80;;;17.50;99.10;;;;;;5039666;28;20422;-82
2021/08/11 03:58:34;;;;;;;11.20;6.03;;;17.50;99.10;;;;;;5039042;28;20180;-81
2021/08/11 04:01:00;;;;;;;15.80;5.35;;;17.50;99.10;;;;;;5039366;28;20495;-81
2021/08/11 04:03:26;;;;;;;12.02;6.18;;;17.50;99.10;;;;;;5039414;28;20196;-81
2021/08/11 04:05:52;;;;;;;12.80;6.37;;;17.50;99.10;;;;;;5039149;28;20216;-82
2021/08/11 04:08:17;;;;;;;13.10;6.50;;;17.50;99.10;;;;;;5039879;28;20408;-82
2021/08/11 04:10:45;;;;;;;10.47;5.97;;;17.50;99.10;;;;;;5039640;28;20169;-82
2021/08/11 04:13:15;;;;;;;12.50;6.00;;;17.50;99.10;;;;;;5039226;28;20296;-81
2021/08/11 04:15:45;;;;;;;15.13;6.28;;;17.60;99.10;;;;;;5039537;28;20645;-82
2021/08/11 04:18:11;;;;;;;12.45;5.88;;;17.60;99.10;;;;;;5040669;28;20172;-82
2021/08/11 04:20:37;;;;;;;10.23;6.10;;;17.60;99.10;;;;;;5039413;28;20169;-82
2021/08/11 04:23:04;;;;;;;15.25;6.00;;;17.60;99.10;;;;;;5039188;28;20216;-82
2021/08/11 04:25:30;;;;;;;14.15;6.57;;;17.60;99.10;;;;;;5038973;28;20212;-82
2021/08/11 04:27:57;;;;;;;10.63;6.47;;;17.60;99.10;;;;;;5038430;28;20193;-81
2021/08/11 04:30:22;;;;;;;14.52;6.00;;;17.60;99.10;;;;;;5038655;28;20189;-82
2021/08/11 04:32:48;;;;;;;11.93;5.83;;;17.50;99.10;;;;;;5037724;28;20205;-81
2021/08/11 04:35:14;;;;;;;19.07;6.20;;;17.60;99.10;;;;;;5038276;28;20765;-82
2021/08/11 04:37:40;;;;;;;12.90;6.70;;;17.50;99.10;;;;;;5038972;28;20177;-81
2021/08/11 04:40:08;;;;;;;12.80;5.68;;;17.60;99.10;;;;;;5040098;28;20942;-81
2021/08/11 04:42:35;;;;;;;13.88;6.85;;;17.60;99.10;;;;;;5039719;28;20183;-82
2021/08/11 04:45:01;;;;;;;13.32;5.35;;;17.60;99.10;;;;;;5039412;28;20283;-81
2021/08/11 04:47:27;;;;;;;16.98;6.10;;;17.60;99.10;;;;;;5039732;28;20173;-81
2021/08/11 04:49:53;;;;;;;13.30;6.18;;;17.60;99.10;;;;;;5039472;28;20176;-82
2021/08/11 04:52:19;;;;;;;16.43;6.40;;;17.60;99.10;;;;;;5038907;28;20256;-81
2021/08/11 04:54:45;;;;;;;16.27;6.07;;;17.60;99.10;;;;;;5038835;28;20426;-81
2021/08/11 04:57:10;;;;;;;11.33;6.37;;;17.50;99.10;;;;;;5038679;28;20646;-81
2021/08/11 04:59:37;;;;;;;12.20;6.10;;;17.50;99.00;;;;;;5038456;28;20195;-81
2021/08/11 05:02:03;;;;;;;13.40;6.18;;;17.40;98.90;;;;;;5038732;28;20412;-82
2021/08/11 05:04:29;;;;;;;11.35;5.63;;;17.30;99.10;;;;;;5038796;28;20209;-82
2021/08/11 05:06:56;;;;;;;10.70;5.57;;;17.30;99.10;;;;;;5039985;28;20638;-82
2021/08/11 05:09:21;;;;;;;22.52;6.70;;;17.30;99.10;;;;;;5039607;28;20430;-82
2021/08/11 05:11:47;;;;;;;9.57;5.60;;;17.30;99.10;;;;;;5038582;28;20661;-82
2021/08/11 05:14:13;;;;;;;17.60;7.30;;;17.20;99.10;;;;;;5039858;28;20205;-82
2021/08/11 05:16:39;;;;;;;10.95;6.45;;;17.20;99.10;;;;;;5047392;28;20403;-82
2021/08/11 05:19:05;;;;;;;26.17;6.13;;;17.20;99.10;;;;;;5039710;28;20165;-82
2021/08/11 05:21:32;;;;;;;8.60;5.83;;;17.20;99.10;;;;;;5040388;28;20403;-82
2021/08/11 05:24:00;;;;;;;12.13;6.05;;;17.30;99.10;;;;;;5040560;28;20440;-82
2021/08/11 05:26:25;;;;;;;10.98;6.32;;;17.30;99.10;;;;;;5040830;28;20629;-82
2021/08/11 05:28:51;;;;;;;17.03;6.73;;;17.40;99.10;;;;;;5040428;28;20180;-82
2021/08/11 05:31:17;;;;;;;12.47;6.97;;;17.40;99.10;;;;;;5040132;28;20180;-82
2021/08/11 05:33:43;;;;;;;18.53;7.33;;;17.50;99.10;;;;;;5040110;28;20306;-82
2021/08/11 05:36:09;;;;;;;18.23;7.47;;;17.60;99.10;;;;;;5039712;28;20400;-82
2021/08/11 05:38:36;;;;;;;11.67;6.93;;;17.60;99.10;;;;;;5041209;28;20174;-83
2021/08/11 05:41:02;;;;;;;20.15;6.70;;;17.70;99.10;;;;;;5040978;28;20915;-82
2021/08/11 05:43:28;;;;;;;17.33;5.70;;;17.70;99.10;;;;;;5041229;28;20204;-82
2021/08/11 05:45:53;;;;;;;11.43;6.20;;;17.70;99.10;;;;;;5041283;28;20180;-82
2021/08/11 05:48:19;;;;;;;16.30;6.27;;;17.80;99.10;;;;;;5041286;28;20644;-82
2021/08/11 05:50:45;;;;;;;12.53;6.90;;;17.90;98.80;;;;;;5040586;28;20565;-82
2021/08/11 05:53:11;;;;;;;14.57;7.33;;;18.00;98.70;;;;;;5040931;28;20464;-82
2021/08/11 05:55:37;;;;;;;14.90;6.80;;;18.00;98.60;;;;;;5040091;28;20256;-82
2021/08/11 05:58:03;;;;;;;17.67;7.77;;;18.00;98.30;;;;;;5039284;28;20901;-82
2021/08/11 06:00:29;;;;;;;17.38;7.68;;;18.10;98.30;;;;;;5033615;28;20546;-82
2021/08/11 06:02:57;;;;;;;19.87;7.77;;;18.20;98.00;;;;;;5019278;28;20222;-82
2021/08/11 06:05:23;;;;;;;10.93;6.20;;;18.30;97.80;;;;;;5101428;23;20505;-83
2021/08/11 06:07:49;;;;;;;10.40;6.43;;;18.40;97.30;;;;;;5056833;28;20172;-83
2021/08/11 06:10:15;;;;;;;12.10;6.60;;;18.50;96.90;;;;;;5056959;28;20177;-83
2021/08/11 06:12:41;;;;;;;13.70;7.23;;;18.60;96.30;;;;;;5056833;28;20461;-83
2021/08/11 06:15:07;;;;;;;48.67;9.10;;;18.70;96.30;;;;;;5057166;28;20172;-83
2021/08/11 06:17:43;;;;;;;11.32;5.93;;;18.70;96.40;;;;;;5056917;28;20451;-83
2021/08/11 06:20:10;;;;;;;25.77;8.95;;;18.90;96.00;;;;;;5056566;28;20168;-83
2021/08/11 06:22:36;;;;;;;10.13;6.38;;;19.00;95.60;;;;;;5056827;28;20177;-83
2021/08/11 06:25:02;;;;;;;13.27;7.20;;;19.10;95.40;;;;;;5056255;28;20196;-82
2021/08/11 06:27:27;;;;;;;14.25;7.03;;;19.30;95.00;;;;;;5057116;28;20180;-83
2021/08/11 06:29:53;;;;;;;14.87;7.77;;;19.50;94.60;;;;;;5057262;28;20180;-83
2021/08/11 06:32:19;;;;;;;12.13;6.40;;;19.60;94.00;;;;;;5056614;28;20411;-83
2021/08/11 06:34:45;;;;;;;16.43;6.80;;;19.70;93.60;;;;;;5056779;28;20427;-82
2021/08/11 06:37:11;;;;;;;16.30;7.77;;;19.80;93.00;;;;;;5056325;28;20165;-83
2021/08/11 06:39:36;;;;;;;21.13;7.90;;;19.90;92.40;;;;;;5056302;28;20172;-83
2021/08/11 06:42:02;;;;;;;15.03;7.80;;;20.00;92.10;;;;;;5056506;28;20180;-84
2021/08/11 06:44:28;;;;;;;17.70;6.00;;;20.10;92.10;;;;;;5056504;28;20288;-83
2021/08/11 06:46:54;;;;;;;15.30;7.73;;;20.20;93.00;;;;;;5073957;28;20410;-83
2021/08/11 06:49:19;;;;;;;15.40;6.60;;;20.30;91.90;;;;;;5056529;28;20577;-83
2021/08/11 06:51:45;;;;;;;15.83;6.67;;;20.30;91.50;;;;;;5056031;28;20196;-83
2021/08/11 06:54:11;;;;;;;20.43;8.20;;;20.40;91.60;;;;;;5056328;28;20307;-83
2021/08/11 06:56:37;;;;;;;14.25;7.07;;;20.60;90.80;;;;;;5055972;28;20306;-83
2021/08/11 06:59:03;;;;;;;19.10;8.33;;;20.70;90.30;;;;;;5056333;28;20623;-83
2021/08/11 07:01:29;;;;;;;21.87;8.30;;;20.70;90.40;;;;;;5056304;28;20911;-83
2021/08/11 07:03:55;;;;;;;19.97;8.60;;;20.80;91.10;;;;;;5055570;28;20435;-83
2021/08/11 07:06:21;;;;;;;20.43;8.97;;;20.90;90.30;;;;;;5055701;28;20430;-83
2021/08/11 07:08:46;;;;;;;16.83;8.60;;;20.90;90.60;;;;;;5055937;28;20204;-83
2021/08/11 07:11:12;;;;;;;14.27;6.63;;;21.00;90.30;;;;;;5058724;28;20414;-84
2021/08/11 07:13:38;;;;;;;15.57;7.30;;;21.00;90.50;;;;;;5059906;28;20249;-83
2021/08/11 07:16:04;;;;;;;14.47;6.43;;;21.00;89.90;;;;;;5059775;28;20164;-83
2021/08/11 07:18:30;;;;;;;12.27;5.53;;;21.10;90.30;;;;;;5059815;28;20407;-82
2021/08/11 07:20:55;;;;;;;19.00;7.67;;;21.20;89.50;;;;;;5060053;28;20490;-83
2021/08/11 07:23:21;;;;;;;18.03;7.50;;;21.30;89.10;;;;;;5060097;28;20196;-83
2021/08/11 07:25:47;;;;;;;16.70;8.03;;;21.40;88.40;;;;;;5059811;28;20430;-83
2021/08/11 07:28:13;;;;;;;14.43;7.50;;;21.60;88.80;;;;;;5059750;28;20417;-83
2021/08/11 07:30:39;;;;;;;18.83;7.87;;;21.80;87.40;;;;;;5059628;28;20410;-83
2021/08/11 07:33:08;;;;;;;16.83;8.20;;;21.90;87.00;;;;;;5059748;28;20584;-83
2021/08/11 07:35:36;;;;;;;19.27;7.07;;;22.10;87.00;;;;;;5059333;28;20434;-83
2021/08/11 07:38:02;;;;;;;18.50;9.23;;;22.20;86.20;;;;;;5059654;28;20660;-83
2021/08/11 07:40:28;;;;;;;22.95;8.98;;;22.40;85.90;;;;;;5059774;28;20677;-84
2021/08/11 07:42:55;;;;;;;17.33;7.30;;;22.50;84.80;;;;;;5059727;28;20173;-84
2021/08/11 07:45:22;;;;;;;14.77;7.15;;;22.50;84.40;;;;;;5059045;28;20415;-83
2021/08/11 07:47:52;;;;;;;14.27;7.15;;;22.60;83.00;;;;;;5058672;28;20295;-83
2021/08/11 07:50:19;;;;;;;19.05;7.25;;;22.70;83.40;;;;;;5059157;28;20168;-83
2021/08/11 07:52:45;;;;;;;9.75;5.63;;;22.80;84.40;;;;;;5059469;28;20566;-83
2021/08/11 07:55:11;;;;;;;21.98;6.85;;;22.90;82.10;;;;;;5059406;28;20165;-83
2021/08/11 07:57:38;;;;;;;13.40;6.70;;;23.10;83.10;;;;;;5059472;28;20176;-84
2021/08/11 08:00:05;;;;;;;18.58;6.47;;;23.20;83.10;;;;;;5059565;28;20607;-84
2021/08/11 08:02:31;;;;;;;17.80;8.25;;;23.40;82.60;;;;;;5059349;28;20643;-83
2021/08/11 08:04:57;;;;;;;14.90;6.27;;;23.60;79.80;;;;;;5059215;28;20200;-83
2021/08/11 08:07:22;;;;;;;17.40;6.67;;;23.70;80.10;;;;;;5059250;28;20240;-84
2021/08/11 08:09:48;;;;;;;17.23;7.10;;;23.80;79.20;;;;;;5059071;28;20667;-82
2021/08/11 08:12:14;;;;;;;12.70;7.40;;;23.90;79.10;;;;;;5076963;28;20176;-82
2021/08/11 08:14:40;;;;;;;16.67;7.17;;;24.00;78.80;;;;;;5059259;28;20426;-81
2021/08/11 08:17:09;;;;;;;12.43;6.50;;;24.10;78.00;;;;;;5059012;28;20196;-81
2021/08/11 08:19:34;;;;;;;18.10;6.30;;;24.20;78.30;;;;;;5059027;28;20253;-82
2021/08/11 08:22:00;;;;;;;13.63;6.27;;;24.30;78.30;;;;;;5058268;28;20176;-82
2021/08/11 08:24:26;;;;;;;11.60;6.33;;;24.40;77.80;;;;;;5058973;28;20437;-81
2021/08/11 08:26:52;;;;;;;22.93;6.23;;;24.60;77.10;;;;;;5059448;28;20230;-82
2021/08/11 08:29:18;;;;;;;13.53;6.40;;;24.70;76.00;;;;;;5058249;28;20425;-82
2021/08/11 08:31:43;;;;;;;11.60;5.87;;;24.80;76.30;;;;;;5058302;28;20411;-82
2021/08/11 08:34:09;;;;;;;8.77;5.70;;;24.90;75.90;;;;;;5058872;28;20208;-82
2021/08/11 08:36:35;;;;;;;12.23;5.37;;;25.00;75.20;;;;;;5058070;28;20530;-82
2021/08/11 08:39:01;;;;;;;13.73;6.50;;;25.10;74.10;;;;;;5058698;28;20258;-82
2021/08/11 08:41:27;;;;;;;13.10;5.70;;;25.20;74.80;;;;;;5058777;28;20411;-81
2021/08/11 08:43:53;;;;;;;14.75;6.28;;;25.30;74.60;;;;;;5058432;28;20197;-82
2021/08/11 08:46:20;;;;;;;17.10;5.77;;;25.40;75.20;;;;;;5058511;28;20698;-82
2021/08/11 08:48:46;;;;;;;11.35;5.78;;;25.50;73.50;;;;;;5058580;28;20498;-82
2021/08/11 08:51:13;;;;;;;15.68;5.90;;;25.70;73.00;;;;;;5058611;28;20652;-81
2021/08/11 08:53:41;;;;;;;19.10;5.60;;;25.80;73.70;;;;;;5058433;28;20208;-82
2021/08/11 08:56:08;;;;;;;9.45;5.60;;;25.90;72.00;;;;;;5049553;28;20277;-81
2021/08/11 08:58:33;;;;;;;13.05;5.10;;;26.00;72.60;;;;;;5038782;28;20260;-81
2021/08/11 09:00:59;;;;;;;14.90;4.87;;;26.10;71.70;;;;;;5065353;28;20210;-82
2021/08/11 09:03:25;;;;;;;6.80;4.27;;;26.20;71.60;;;;;;5077740;28;20472;-82
2021/08/11 09:05:51;;;;;;;8.70;4.10;;;26.30;71.00;;;;;;5077655;28;20191;-81
2021/08/11 09:08:17;;;;;;;10.80;5.10;;;26.40;69.20;;;;;;5077764;28;20424;-81
2021/08/11 09:10:43;;;;;;;9.52;4.72;;;26.60;69.20;;;;;;5077146;28;20449;-81
2021/08/11 09:13:19;;;;;;;8.57;5.00;;;26.60;68.30;;;;;;5076571;28;20239;-81
2021/08/11 09:15:47;;;;;;;9.93;4.65;;;26.70;69.40;;;;;;5077109;28;20178;-82
2021/08/11 09:18:21;;;;;;;11.38;4.70;;;26.90;68.70;;;;;;5077091;28;20195;-80
2021/08/11 09:21:02;;;;;;;7.82;4.32;;;27.10;67.10;;;;;;5077084;28;20178;-81
2021/08/11 09:23:34;;;;;;;12.20;6.00;;;27.30;66.40;;;;;;5075766;28;20253;-82
2021/08/11 09:26:02;;;;;;;7.35;4.55;;;27.40;66.70;;;;;;5076147;28;20195;-82
2021/08/11 09:28:31;;;;;;;11.18;4.72;;;27.60;67.80;;;;;;5076082;28;20263;-82
2021/08/11 09:30:57;;;;;;;9.25;4.50;;;27.80;67.10;;;;;;5075972;28;20205;-82
2021/08/11 09:33:26;;;;;;;7.82;4.10;;;28.00;67.30;;;;;;5075769;28;20250;-82
2021/08/11 09:35:53;;;;;;;8.00;4.50;;;28.10;65.50;;;;;;5076502;28;20624;-82
2021/08/11 09:38:20;;;;;;;10.55;4.45;;;28.10;63.70;;;;;;5076732;28;20624;-81
2021/08/11 09:40:48;;;;;;;7.82;4.05;;;28.30;64.10;;;;;;5077202;28;20195;-82
2021/08/11 09:43:31;;;;;;;13.57;4.43;;;28.40;64.40;;;;;;5076536;28;20325;-82
2021/08/11 09:45:57;;;;;;;7.65;3.95;;;28.60;63.80;;;;;;5075940;28;20172;-82
2021/08/11 09:48:24;;;;;;;10.67;5.00;;;28.70;61.40;;;;;;5093730;28;20179;-82
2021/08/11 09:51:10;;;;;;;10.40;4.38;;;28.90;62.80;;;;;;5075840;28;20203;-81
2021/08/11 09:53:38;;;;;;;9.48;5.53;;;29.00;61.20;;;;;;5075472;28;20586;-82
2021/08/11 09:56:11;;;;;;;10.13;4.40;;;29.20;62.10;;;;;;5075375;28;20175;-81
2021/08/11 09:58:46;;;;;;;8.75;4.40;;;29.40;61.70;;;;;;5075554;28;20175;-82
2021/08/11 10:01:11;;;;;;;12.45;4.70;;;29.60;59.20;;;;;;5076120;28;20167;-83
2021/08/11 10:04:00;;;;;;;10.63;4.67;;;29.70;58.80;;;;;;5075429;28;20564;-82
2021/08/11 10:06:34;;;;;;;18.25;4.65;;;30.00;60.10;;;;;;5075720;28;20690;-82
2021/08/11 10:09:19;;;;;;;7.28;4.78;;;30.30;60.60;;;;;;5075778;28;20722;-82
2021/08/11 10:11:51;;;;;;;9.63;4.63;;;30.40;58.90;;;;;;5049912;28;20212;-82
2021/08/11 10:14:21;;;;;;;8.27;4.35;;;30.20;57.20;;;;;;5052396;28;20208;-82
2021/08/11 10:16:47;;;;;;;11.00;4.70;;;30.10;57.40;;;;;;5056314;28;20583;-82
2021/08/11 10:19:13;;;;;;;6.80;4.13;;;30.00;58.00;;;;;;5056113;28;20180;-82
2021/08/11 10:21:54;;;;;;;11.68;4.75;;;30.10;57.10;;;;;;5056233;28;20242;-82
2021/08/11 10:24:20;;;;;;;6.97;4.53;;;30.10;56.80;;;;;;5055877;28;20279;-82
2021/08/11 10:26:48;;;;;;;6.82;4.13;;;30.00;57.40;;;;;;5055372;28;20597;-82
2021/08/11 10:29:16;;;;;;;10.73;4.80;;;29.80;59.70;;;;;;5055406;28;20226;-82
2021/08/11 10:31:42;;;;;;;9.70;4.50;;;29.50;59.10;;;;;;5055347;28;20172;-83
2021/08/11 10:34:11;;;;;;;8.18;4.72;;;29.40;60.10;;;;;;5055032;28;20694;-83
2021/08/11 10:36:41;;;;;;;8.88;5.30;;;29.30;60.00;;;;;;5055158;28;20651;-83
2021/08/11 10:39:07;;;;;;;7.75;4.28;;;29.20;63.00;;;;;;5055025;28;20183;-82
2021/08/11 10:41:34;;;;;;;9.00;4.97;;;29.20;60.10;;;;;;5055091;28;20255;-82
2021/08/11 10:44:02;;;;;;;8.10;4.25;;;29.10;60.60;;;;;;5054807;28;20495;-83
2021/08/11 10:46:43;;;;;;;7.25;4.30;;;29.20;59.30;;;;;;5054794;28;20172;-82
2021/08/11 10:49:19;;;;;;;9.90;4.32;;;29.10;60.50;;;;;;5055171;28;20233;-83
2021/08/11 10:51:47;;;;;;;11.50;5.22;;;29.20;60.90;;;;;;5055174;28;20164;-83
2021/08/11 10:54:13;;;;;;;7.55;4.10;;;29.10;59.40;;;;;;5054802;28;20631;-83
2021/08/11 10:56:46;;;;;;;7.70;4.68;;;29.20;60.10;;;;;;5054914;28;20172;-82
2021/08/11 10:59:25;;;;;;;11.25;4.72;;;29.40;60.20;;;;;;5055416;28;20698;-82
2021/08/11 11:01:53;;;;;;;7.75;4.35;;;29.70;58.80;;;;;;5054914;28;20532;-82
2021/08/11 11:04:39;;;;;;;7.72;4.35;;;29.80;58.40;;;;;;5054818;28;20184;-82
2021/08/11 11:07:11;;;;;;;8.25;4.45;;;29.50;58.70;;;;;;5054717;28;20220;-83
2021/08/11 11:09:42;;;;;;;8.30;3.85;;;29.50;58.70;;;;;;5054855;28;20169;-82
2021/08/11 11:12:17;;;;;;;10.05;4.50;;;29.20;59.40;;;;;;5054749;28;20177;-82
2021/08/11 11:14:57;;;;;;;11.40;5.35;;;29.20;59.80;;;;;;5054762;28;20204;-82
2021/08/11 11:17:28;;;;;;;7.75;4.90;;;29.40;58.90;;;;;;5055086;28;20248;-82
2021/08/11 11:20:08;;;;;;;6.65;4.35;;;29.80;58.00;;;;;;5054813;28;20168;-82
2021/08/11 11:22:48;;;;;;;7.88;5.07;;;30.10;58.10;;;;;;5054875;28;20531;-82
2021/08/11 11:25:15;;;;;;;13.85;4.88;;;30.50;57.10;;;;;;5054850;28;20179;-82
2021/08/11 11:27:44;;;;;;;7.53;5.13;;;30.90;54.90;;;;;;5054695;28;20585;-82
2021/08/11 11:30:14;;;;;;;6.22;4.45;;;31.10;53.80;;;;;;5054875;28;20169;-83
2021/08/11 11:32:41;;;;;;;7.45;4.25;;;31.20;52.90;;;;;;5055036;28;20204;-82
2021/08/11 11:35:21;;;;;;;8.98;4.57;;;31.30;53.00;;;;;;5054598;28;20168;-83
2021/08/11 11:38:07;;;;;;;5.28;4.20;;;31.40;52.00;;;;;;5054784;28;20164;-83
2021/08/11 11:40:33;;;;;;;6.47;4.20;;;31.60;53.00;;;;;;5054626;28;20168;-82
2021/08/11 11:43:25;;;;;;;5.95;4.13;;;31.80;51.50;;;;;;5054581;28;20229;-82
2021/08/11 11:45:51;;;;;;;9.73;4.57;;;32.00;50.90;;;;;;5054652;28;20648;-81
2021/08/11 11:48:17;;;;;;;6.28;4.22;;;32.20;50.70;;;;;;5054731;28;20176;-82
2021/08/11 11:51:03;;;;;;;8.07;3.90;;;32.40;50.90;;;;;;5054678;28;20592;-82
2021/08/11 11:53:34;;;;;;;10.15;4.38;;;32.40;50.70;;;;;;5054352;28;20684;-82
2021/08/11 11:56:14;;;;;;;9.27;4.07;;;32.50;50.00;;;;;;5055627;28;20172;-82
2021/08/11 11:58:47;;;;;;;11.02;5.93;;;32.30;51.20;;;;;;5058596;28;20288;-82
2021/08/11 12:01:15;;;;;;;14.32;5.13;;;31.80;52.00;;;;;;5058528;28;20169;-82
2021/08/11 12:03:51;;;;;;;11.63;5.20;;;31.30;54.10;;;;;;5058159;28;20196;-82
2021/08/11 12:06:37;;;;;;;13.55;5.47;;;30.50;54.70;;;;;;5131286;22;20856;-83
2021/08/11 12:09:04;;;;;;;10.65;4.97;;;30.20;55.90;;;;;;5067365;28;20632;-82
2021/08/11 12:11:30;;;;;;;9.73;4.88;;;30.00;56.20;;;;;;5067427;28;20164;-82
2021/08/11 12:13:55;;;;;;;7.65;4.75;;;30.00;56.30;;;;;;5066645;28;20573;-82
2021/08/11 12:16:22;;;;;;;12.10;5.10;;;30.10;56.40;;;;;;5066606;28;20183;-83
2021/08/11 12:18:50;;;;;;;8.43;4.53;;;30.30;56.30;;;;;;5065022;28;20442;-83
2021/08/11 12:21:19;;;;;;;11.13;4.63;;;30.70;54.30;;;;;;5064740;28;20253;-83
2021/08/11 12:23:46;;;;;;;10.15;4.25;;;30.90;54.50;;;;;;5064297;28;20206;-83
2021/08/11 12:26:16;;;;;;;12.60;5.15;;;31.10;53.40;;;;;;5063333;28;20176;-83
2021/08/11 12:28:48;;;;;;;12.13;5.60;;;31.20;53.30;;;;;;5062422;28;20651;-83
2021/08/11 12:31:18;;;;;;;7.03;4.18;;;31.40;53.40;;;;;;5061406;28;20625;-83
2021/08/11 12:33:47;;;;;;;5.70;3.83;;;31.70;52.00;;;;;;5065174;28;20204;-83
2021/08/11 12:36:18;;;;;;;6.90;4.50;;;31.50;52.20;;;;;;5063977;28;20280;-83
2021/08/11 12:39:14;;;;;;;6.20;4.53;;;31.40;53.40;;;;;;5062971;28;20161;-83
2021/08/11 12:41:44;;;;;;;6.03;3.72;;;31.20;52.80;;;;;;5064970;28;20326;-83
2021/08/11 12:44:18;;;;;;;6.95;4.63;;;31.10;53.70;;;;;;5064378;28;20196;-83
2021/08/11 12:46:44;;;;;;;6.97;4.30;;;31.10;52.50;;;;;;5065135;28;20532;-82